Time;durP1;ratioP1;P1;durP2;ratioP2;P2;SDS_P1;SDS_P2;PMS_P1;PMS_P2;Temp;Humidity;BMP_temperature;BMP_pressure;BME280_temperature;BME280_humidity;BME280_pressure;Samples;Min_cycle;Max_cycle;Signal;HPM_P1;HPM_P2
2022/11/22 00:02:38;;;;;;;2.97;1.48;;;9.00;99.90;;;;;;10098217;28;20021;-64
2022/11/22 00:07:29;;;;;;;2.47;1.27;;;9.00;99.90;;;;;;10093393;28;20067;-65
2022/11/22 00:12:20;;;;;;;1.35;0.93;;;9.00;99.90;;;;;;10102612;28;20048;-67
2022/11/22 00:17:10;;;;;;;2.47;2.28;;;9.00;99.90;;;;;;10102656;28;20025;-64
2022/11/22 00:22:04;;;;;;;2.65;1.00;;;9.00;99.90;;;;;;10080629;28;20043;-63
2022/11/22 00:26:54;;;;;;;1.80;1.15;;;8.90;99.90;;;;;;10088601;28;20136;-68
2022/11/22 00:31:45;;;;;;;1.27;0.88;;;8.90;99.90;;;;;;10108212;28;20381;-66
2022/11/22 00:36:36;;;;;;;1.60;1.20;;;8.90;99.90;;;;;;10094067;28;20088;-66
2022/11/22 00:41:26;;;;;;;2.13;1.17;;;9.00;99.90;;;;;;10099701;28;20041;-65
2022/11/22 00:46:17;;;;;;;1.45;1.10;;;9.10;99.90;;;;;;10088617;28;20611;-65
2022/11/22 00:51:08;;;;;;;1.50;1.00;;;9.10;99.90;;;;;;10087533;28;20029;-67
2022/11/22 00:55:58;;;;;;;3.15;1.70;;;9.10;99.90;;;;;;10097816;28;20559;-68
2022/11/22 01:00:49;;;;;;;1.45;0.88;;;9.00;99.90;;;;;;10093882;28;20072;-65
2022/11/22 01:05:40;;;;;;;2.13;0.80;;;9.00;99.90;;;;;;10089472;28;20033;-64
2022/11/22 01:10:31;;;;;;;1.23;0.80;;;9.10;99.90;;;;;;10102727;28;20498;-62
2022/11/22 01:15:21;;;;;;;2.20;1.25;;;9.10;99.90;;;;;;10093171;28;20238;-65
2022/11/22 01:20:15;;;;;;;8.55;1.27;;;9.10;99.90;;;;;;10093156;28;20025;-66
2022/11/22 01:25:07;;;;;;;3.75;1.50;;;9.10;99.90;;;;;;10096825;28;20045;-63
2022/11/22 01:29:57;;;;;;;1.88;1.40;;;9.20;99.90;;;;;;10104609;28;20021;-63
2022/11/22 01:34:48;;;;;;;1.58;0.95;;;9.10;99.90;;;;;;10103649;28;20044;-60
2022/11/22 01:39:39;;;;;;;3.35;1.10;;;9.10;99.90;;;;;;10102175;28;20021;-67
2022/11/22 01:44:31;;;;;;;3.85;1.45;;;9.10;99.90;;;;;;10109648;28;20072;-65
2022/11/22 01:49:30;;;;;;;1.10;0.88;;;9.00;99.90;;;;;;10094677;28;20064;-66
2022/11/22 01:54:24;;;;;;;1.02;0.75;;;9.00;99.90;;;;;;10094999;28;20109;-63
2022/11/22 01:59:18;;;;;;;2.38;0.77;;;9.00;99.90;;;;;;10105685;28;20625;-67
2022/11/22 02:04:11;;;;;;;2.17;1.25;;;8.90;99.90;;;;;;10095695;28;20040;-66
2022/11/22 02:09:11;;;;;;;2.95;1.52;;;8.90;99.90;;;;;;10097286;28;20024;-68
2022/11/22 02:14:07;;;;;;;2.17;1.15;;;8.90;99.90;;;;;;10095219;28;20036;-66
2022/11/22 02:18:57;;;;;;;2.53;1.33;;;8.90;99.90;;;;;;10088721;28;20021;-63
2022/11/22 02:23:54;;;;;;;2.92;1.17;;;8.80;99.90;;;;;;10101349;28;20060;-61
2022/11/22 02:28:45;;;;;;;1.67;0.98;;;8.80;99.90;;;;;;10088450;28;20060;-61
2022/11/22 02:33:35;;;;;;;2.28;0.90;;;8.80;99.90;;;;;;10095476;28;20033;-68
2022/11/22 02:38:31;;;;;;;1.83;0.90;;;8.80;99.90;;;;;;10099954;28;20035;-67
2022/11/22 02:43:36;;;;;;;4.70;1.25;;;8.70;99.90;;;;;;10112151;28;20044;-67
2022/11/22 02:48:27;;;;;;;3.80;1.17;;;8.70;99.90;;;;;;10090865;28;20076;-67
2022/11/22 02:53:17;;;;;;;1.20;1.00;;;8.80;99.90;;;;;;10085495;28;20126;-62
2022/11/22 02:58:09;;;;;;;3.35;1.27;;;8.80;99.90;;;;;;10088780;28;20135;-60
2022/11/22 03:03:01;;;;;;;2.55;0.90;;;8.90;99.90;;;;;;10088392;28;20039;-59
2022/11/22 03:07:51;;;;;;;1.58;0.82;;;8.90;99.90;;;;;;10096519;28;20072;-60
2022/11/22 03:12:42;;;;;;;5.43;2.08;;;8.90;99.90;;;;;;10111244;28;20076;-59
2022/11/22 03:17:32;;;;;;;4.03;1.50;;;8.90;99.90;;;;;;10088386;28;20025;-59
2022/11/22 03:22:23;;;;;;;2.95;1.00;;;9.00;99.90;;;;;;10088404;28;20422;-59
2022/11/22 03:27:14;;;;;;;2.40;1.13;;;9.00;99.90;;;;;;10072150;28;20025;-60
2022/11/22 03:32:05;;;;;;;3.47;1.10;;;9.10;99.90;;;;;;10091671;28;20486;-59
2022/11/22 03:36:55;;;;;;;4.18;1.15;;;9.00;99.90;;;;;;10095590;28;20020;-60
2022/11/22 03:41:49;;;;;;;6.95;1.35;;;9.10;99.90;;;;;;10091545;28;20120;-61
2022/11/22 03:46:40;;;;;;;3.45;1.08;;;9.00;99.90;;;;;;10082651;28;20036;-66
2022/11/22 03:51:31;;;;;;;3.33;0.95;;;8.90;99.90;;;;;;10091010;28;20103;-60
2022/11/22 03:56:21;;;;;;;3.60;1.20;;;8.90;99.90;;;;;;10093132;28;20103;-62
2022/11/22 04:01:12;;;;;;;3.42;0.88;;;8.80;99.90;;;;;;10075578;28;20033;-59
2022/11/22 04:06:03;;;;;;;3.63;0.77;;;8.70;99.90;;;;;;10078066;28;20032;-59
2022/11/22 04:10:53;;;;;;;2.47;1.50;;;8.70;99.90;;;;;;10072103;28;20407;-60
2022/11/22 04:15:44;;;;;;;6.15;1.42;;;8.60;99.90;;;;;;10092335;28;20029;-59
2022/11/22 04:26:03;;;;;;;1.98;1.30;;;8.50;99.90;;;;;;9970258;28;20059;-61
2022/11/22 04:36:04;;;;;;;2.88;0.90;;;8.50;99.90;;;;;;10106376;28;20111;-60
2022/11/22 04:40:54;;;;;;;6.55;2.30;;;8.50;99.90;;;;;;10095693;28;20116;-59
2022/11/22 04:45:46;;;;;;;2.13;0.98;;;8.40;99.90;;;;;;10093151;28;20040;-59
2022/11/22 04:55:58;;;;;;;2.17;1.05;;;8.40;99.90;;;;;;10043209;28;20124;-60
2022/11/22 05:00:49;;;;;;;4.25;1.00;;;8.30;99.90;;;;;;10092194;28;20119;-62
2022/11/22 05:05:42;;;;;;;4.78;1.20;;;8.30;99.90;;;;;;10105777;28;20017;-60
2022/11/22 05:15:57;;;;;;;2.85;1.60;;;8.30;99.90;;;;;;10058343;28;20514;-59
2022/11/22 05:20:49;;;;;;;2.80;1.10;;;8.30;99.90;;;;;;10110187;28;20036;-60
2022/11/22 05:25:40;;;;;;;2.10;1.08;;;8.30;99.90;;;;;;10086943;28;20552;-63
2022/11/22 05:30:31;;;;;;;2.13;1.15;;;8.50;99.90;;;;;;10102163;28;20033;-63
2022/11/22 05:35:22;;;;;;;4.20;1.27;;;8.50;99.90;;;;;;10114571;28;20066;-62
2022/11/22 05:40:12;;;;;;;7.72;1.48;;;8.50;99.90;;;;;;10105621;28;20730;-60
2022/11/22 05:45:03;;;;;;;2.97;1.20;;;8.40;99.90;;;;;;10097448;28;20526;-59
2022/11/22 05:49:54;;;;;;;2.95;1.20;;;8.50;99.90;;;;;;10115169;28;20024;-61
2022/11/22 05:54:45;;;;;;;2.33;1.23;;;8.40;99.90;;;;;;10098599;28;20037;-62
2022/11/22 05:59:35;;;;;;;3.10;1.42;;;8.30;99.90;;;;;;10101369;28;20029;-58
2022/11/22 06:04:26;;;;;;;4.50;1.10;;;8.30;99.90;;;;;;10098143;28;20505;-60
2022/11/22 06:09:16;;;;;;;1.73;0.90;;;8.30;99.90;;;;;;10100459;28;20039;-63
2022/11/22 06:14:08;;;;;;;3.55;1.50;;;8.30;99.90;;;;;;10101895;28;20063;-59
2022/11/22 06:18:58;;;;;;;1.65;1.15;;;8.30;99.90;;;;;;10099980;28;20036;-62
2022/11/22 06:23:54;;;;;;;4.15;1.98;;;8.30;99.90;;;;;;10100524;28;20056;-59
2022/11/22 06:28:45;;;;;;;5.37;1.40;;;8.20;99.90;;;;;;10094964;28;20029;-60
2022/11/22 06:33:36;;;;;;;3.28;1.02;;;8.20;99.90;;;;;;10097369;28;20025;-60
2022/11/22 06:38:30;;;;;;;3.90;1.08;;;8.20;99.90;;;;;;10099246;28;20028;-59
2022/11/22 06:43:21;;;;;;;2.30;0.88;;;8.30;99.90;;;;;;10098482;28;20044;-58
2022/11/22 06:48:12;;;;;;;2.97;1.05;;;8.30;99.90;;;;;;10098912;28;20386;-61
2022/11/22 06:53:02;;;;;;;2.67;1.55;;;8.30;99.90;;;;;;10106795;28;20100;-59
2022/11/22 06:57:53;;;;;;;3.42;0.70;;;8.40;99.90;;;;;;10101637;28;20072;-59
2022/11/22 07:02:44;;;;;;;0.93;0.70;;;8.30;99.90;;;;;;10102894;28;20189;-59
2022/11/22 07:07:34;;;;;;;2.30;1.08;;;8.30;99.90;;;;;;10079996;28;20029;-60
2022/11/22 07:12:25;;;;;;;2.78;1.02;;;8.30;99.90;;;;;;10094789;28;20037;-60
2022/11/22 07:17:16;;;;;;;3.10;0.98;;;8.30;99.90;;;;;;10107134;28;20040;-60
2022/11/22 07:22:06;;;;;;;1.30;0.75;;;8.30;99.90;;;;;;10101627;28;20041;-60
2022/11/22 07:26:57;;;;;;;1.08;0.60;;;8.30;99.90;;;;;;10101755;28;20041;-59
2022/11/22 07:31:48;;;;;;;1.77;0.93;;;8.40;99.90;;;;;;10099588;28;20029;-60
2022/11/22 07:36:38;;;;;;;4.45;1.42;;;8.40;99.90;;;;;;10079457;28;20128;-60
2022/11/22 07:41:32;;;;;;;3.88;0.90;;;8.30;99.90;;;;;;10088477;28;20025;-59
2022/11/22 07:46:28;;;;;;;2.13;1.05;;;8.40;99.90;;;;;;10087123;28;20045;-61
2022/11/22 07:51:19;;;;;;;1.45;0.90;;;8.50;99.90;;;;;;10083607;28;20108;-64
2022/11/22 07:56:10;;;;;;;3.20;0.90;;;8.50;99.90;;;;;;10083197;28;20013;-61
2022/11/22 08:01:09;;;;;;;2.47;0.90;;;8.50;99.90;;;;;;10086498;28;20040;-60
2022/11/22 08:06:00;;;;;;;2.78;1.05;;;8.50;99.90;;;;;;10082500;28;20083;-61
2022/11/22 08:10:51;;;;;;;7.70;1.23;;;8.60;99.90;;;;;;10088197;28;20021;-63
2022/11/22 08:15:41;;;;;;;2.67;1.40;;;8.80;99.90;;;;;;10068881;28;20029;-62
2022/11/22 08:20:32;;;;;;;3.80;1.60;;;8.80;99.90;;;;;;10080016;28;20059;-61
2022/11/22 08:25:23;;;;;;;4.20;1.42;;;8.70;99.90;;;;;;10081725;28;20056;-61
2022/11/22 08:30:14;;;;;;;6.32;1.67;;;8.80;99.90;;;;;;10079892;28;20047;-60
2022/11/22 08:35:05;;;;;;;2.50;1.40;;;8.80;99.90;;;;;;10081757;28;20437;-59
2022/11/22 08:39:56;;;;;;;2.17;0.90;;;8.90;99.90;;;;;;10080606;28;20036;-61
2022/11/22 08:44:46;;;;;;;5.22;1.85;;;8.80;99.90;;;;;;10081941;28;20288;-60
2022/11/22 08:49:37;;;;;;;1.88;1.20;;;8.80;99.90;;;;;;10087964;28;20095;-60
2022/11/22 08:54:28;;;;;;;2.38;1.20;;;8.90;99.90;;;;;;10085716;28;20029;-60
2022/11/22 08:59:19;;;;;;;7.90;1.75;;;8.90;99.90;;;;;;10093079;28;20217;-60
2022/11/22 09:04:10;;;;;;;5.05;1.40;;;9.00;99.90;;;;;;10094074;28;20366;-62
2022/11/22 09:09:00;;;;;;;4.60;1.15;;;9.00;99.90;;;;;;10092438;28;20021;-63
2022/11/22 09:13:51;;;;;;;3.03;0.93;;;9.00;99.90;;;;;;10097246;28;20385;-63
2022/11/22 09:18:42;;;;;;;1.73;0.75;;;9.00;99.90;;;;;;10093885;28;20017;-61
2022/11/22 09:23:33;;;;;;;3.83;1.05;;;9.00;99.90;;;;;;10091764;28;20048;-65
2022/11/22 09:28:25;;;;;;;6.97;1.88;;;8.90;99.90;;;;;;10094193;28;20486;-61
2022/11/22 09:33:16;;;;;;;3.92;1.10;;;9.10;99.90;;;;;;10092274;28;20017;-60
2022/11/22 09:38:10;;;;;;;6.00;1.77;;;9.10;99.90;;;;;;10096606;28;20092;-68
2022/11/22 09:43:29;;;;;;;3.60;1.40;;;9.20;99.90;;;;;;10089446;28;20081;-63
2022/11/22 09:48:25;;;;;;;3.75;1.92;;;9.30;99.90;;;;;;10087601;28;20028;-62
2022/11/22 09:53:23;;;;;;;4.95;2.05;;;9.30;99.90;;;;;;10084456;28;20049;-63
2022/11/22 09:58:29;;;;;;;4.20;1.25;;;9.30;99.90;;;;;;10092419;28;20031;-61
2022/11/22 10:03:52;;;;;;;3.20;1.02;;;9.40;99.90;;;;;;10087424;28;20091;-60
2022/11/22 10:08:59;;;;;;;5.38;1.10;;;9.40;99.90;;;;;;10050616;28;20037;-62
2022/11/22 10:13:57;;;;;;;1.95;1.23;;;9.40;99.90;;;;;;10087170;28;20154;-60
2022/11/22 10:18:59;;;;;;;4.75;1.25;;;9.30;99.90;;;;;;10087834;28;20484;-62
2022/11/22 10:23:50;;;;;;;4.57;1.67;;;9.40;99.90;;;;;;10089264;28;20143;-61
2022/11/22 10:29:19;;;;;;;8.55;1.30;;;9.50;99.90;;;;;;10071667;28;20064;-62
2022/11/22 10:34:22;;;;;;;2.13;0.73;;;9.60;99.90;;;;;;10085403;28;20490;-59
2022/11/22 10:39:19;;;;;;;3.00;1.83;;;9.70;99.90;;;;;;10084094;28;20029;-60
2022/11/22 10:44:29;;;;;;;2.80;0.90;;;9.90;99.90;;;;;;10085855;28;20099;-60
2022/11/22 10:49:22;;;;;;;5.60;1.27;;;9.90;99.90;;;;;;10088245;28;20033;-62
2022/11/22 10:54:25;;;;;;;3.42;1.20;;;9.80;99.90;;;;;;10090863;28;20029;-65
2022/11/22 10:59:43;;;;;;;4.25;1.30;;;9.90;99.90;;;;;;10067201;28;20100;-61
2022/11/22 11:04:38;;;;;;;4.28;1.25;;;10.00;99.90;;;;;;10090969;28;20044;-59
2022/11/22 11:09:38;;;;;;;4.53;1.20;;;10.20;99.90;;;;;;10082234;28;20063;-60
2022/11/22 11:14:58;;;;;;;2.70;1.08;;;10.20;99.90;;;;;;10070718;28;20028;-61
2022/11/22 11:19:49;;;;;;;3.58;1.00;;;10.20;99.90;;;;;;10089337;28;20028;-60
2022/11/22 11:24:40;;;;;;;2.45;0.82;;;10.00;99.90;;;;;;10084013;28;20056;-66
2022/11/22 11:29:48;;;;;;;2.17;1.00;;;9.90;99.90;;;;;;10088485;28;20139;-60
2022/11/22 11:34:41;;;;;;;3.85;1.27;;;10.10;99.90;;;;;;10084895;28;20032;-59
2022/11/22 11:39:34;;;;;;;2.45;0.85;;;10.10;99.90;;;;;;10089089;28;20025;-63
2022/11/22 11:44:30;;;;;;;4.88;1.08;;;10.20;99.90;;;;;;10091207;28;20068;-59
2022/11/22 11:49:25;;;;;;;4.78;0.55;;;10.30;99.90;;;;;;10096289;28;20442;-58
2022/11/22 11:54:32;;;;;;;2.30;0.65;;;10.30;99.90;;;;;;10086854;28;20139;-62
2022/11/22 11:59:36;;;;;;;3.55;1.80;;;10.30;99.90;;;;;;10087617;28;20043;-62
2022/11/22 12:04:29;;;;;;;3.70;0.50;;;10.40;99.90;;;;;;10085547;28;20132;-64
2022/11/22 12:09:34;;;;;;;5.47;1.30;;;10.40;99.90;;;;;;10073787;28;20069;-62
2022/11/22 12:14:26;;;;;;;1.63;0.70;;;10.50;99.90;;;;;;10084436;28;20041;-64
2022/11/22 12:19:26;;;;;;;1.98;0.50;;;10.60;99.90;;;;;;10088159;28;20255;-64
2022/11/22 12:24:28;;;;;;;3.83;0.63;;;10.60;99.90;;;;;;10071160;28;20083;-61
2022/11/22 12:29:19;;;;;;;1.67;0.65;;;10.40;99.90;;;;;;10084445;28;20048;-65
2022/11/22 12:34:35;;;;;;;3.55;0.82;;;10.40;99.90;;;;;;10093390;28;20072;-65
2022/11/22 12:39:27;;;;;;;3.97;1.20;;;10.30;99.90;;;;;;10091183;28;20244;-66
2022/11/22 12:44:19;;;;;;;2.85;0.80;;;10.40;99.90;;;;;;10085000;28;20045;-63
2022/11/22 12:49:36;;;;;;;0.93;0.43;;;10.40;99.90;;;;;;10077796;28;20025;-66
2022/11/22 12:54:31;;;;;;;1.17;0.77;;;10.40;99.90;;;;;;10065260;28;20038;-65
2022/11/22 12:59:44;;;;;;;1.60;0.60;;;10.30;99.90;;;;;;10088774;28;20029;-66
2022/11/22 13:04:53;;;;;;;2.25;0.63;;;10.30;99.90;;;;;;10068350;28;20440;-66
2022/11/22 13:09:53;;;;;;;1.15;0.50;;;10.10;99.90;;;;;;10062386;28;20052;-66
2022/11/22 13:14:54;;;;;;;2.05;0.52;;;10.10;99.90;;;;;;10083059;28;20056;-60
2022/11/22 13:19:56;;;;;;;2.15;0.90;;;10.10;99.90;;;;;;10078273;28;20047;-59
2022/11/22 13:25:11;;;;;;;1.40;0.45;;;10.20;99.90;;;;;;10086128;28;20045;-60
2022/11/22 13:30:02;;;;;;;1.13;0.52;;;10.10;99.90;;;;;;10083063;28;20025;-60
2022/11/22 13:35:16;;;;;;;0.90;0.40;;;10.10;99.90;;;;;;10091143;28;20033;-59
2022/11/22 13:40:33;;;;;;;3.53;0.82;;;10.00;99.90;;;;;;10092170;28;20028;-62
2022/11/22 13:45:24;;;;;;;2.58;1.10;;;10.00;99.90;;;;;;10092196;28;20037;-60
2022/11/22 13:50:40;;;;;;;1.02;0.40;;;10.10;99.90;;;;;;10092080;28;20037;-60
2022/11/22 13:55:32;;;;;;;0.90;0.50;;;10.10;99.90;;;;;;10092539;28;20052;-60
2022/11/22 14:00:29;;;;;;;3.58;0.70;;;10.10;99.90;;;;;;10092509;28;20060;-61
2022/11/22 14:05:31;;;;;;;3.20;0.73;;;10.00;99.90;;;;;;10094020;28;20036;-62
2022/11/22 14:10:32;;;;;;;1.30;0.63;;;10.10;99.90;;;;;;10081275;28;20024;-65
2022/11/22 14:15:34;;;;;;;1.40;0.80;;;10.10;99.90;;;;;;10092344;28;20052;-59
2022/11/22 14:21:05;;;;;;;2.35;0.80;;;9.90;99.90;;;;;;10090281;28;20029;-59
2022/11/22 14:26:05;;;;;;;1.50;1.00;;;9.90;99.90;;;;;;10088780;28;20041;-61
2022/11/22 14:30:56;;;;;;;2.80;0.93;;;9.90;99.90;;;;;;10083437;28;20163;-60
2022/11/22 14:36:05;;;;;;;2.08;0.70;;;9.80;99.90;;;;;;10088763;28;20021;-61
2022/11/22 14:41:27;;;;;;;3.55;1.05;;;9.70;99.90;;;;;;10088776;28;20663;-63
2022/11/22 14:46:21;;;;;;;4.40;1.00;;;9.70;99.90;;;;;;10088798;28;20044;-60
2022/11/22 14:51:27;;;;;;;3.97;1.10;;;9.60;99.90;;;;;;10086230;28;20021;-59
2022/11/22 14:56:23;;;;;;;;;;;9.70;99.90;;;;;;10086774;28;20056;-61
2022/11/22 15:01:25;;;;;;;0.83;0.57;;;9.70;99.90;;;;;;10090407;28;20352;-59
2022/11/22 15:06:15;;;;;;;2.33;0.63;;;9.70;99.90;;;;;;10085869;28;20028;-61
2022/11/22 15:11:44;;;;;;;2.75;0.88;;;9.70;99.90;;;;;;10086753;28;20079;-60
2022/11/22 15:16:37;;;;;;;1.83;0.75;;;9.80;99.90;;;;;;10066840;28;20052;-60
2022/11/22 15:21:31;;;;;;;4.50;0.90;;;9.80;99.90;;;;;;10087041;28;20067;-58
2022/11/22 15:26:23;;;;;;;1.85;0.80;;;9.80;99.90;;;;;;10089392;28;20268;-58
2022/11/22 15:31:27;;;;;;;1.45;0.73;;;9.80;99.90;;;;;;10084666;28;20036;-58
2022/11/22 15:37:00;;;;;;;3.92;1.77;;;9.70;99.90;;;;;;10085874;28;20013;-61
2022/11/22 15:41:52;;;;;;;3.92;1.00;;;9.70;99.90;;;;;;10088563;28;20029;-60
2022/11/22 15:46:44;;;;;;;1.73;0.70;;;9.70;99.90;;;;;;10081801;28;20029;-62
2022/11/22 15:51:52;;;;;;;0.75;0.45;;;9.60;99.90;;;;;;10085445;28;20013;-57
2022/11/22 15:57:04;;;;;;;3.88;0.93;;;9.60;99.90;;;;;;10080731;28;20092;-63
2022/11/22 16:01:58;;;;;;;1.70;1.13;;;9.60;99.90;;;;;;10082046;28;20280;-63
2022/11/22 16:06:50;;;;;;;2.45;1.10;;;9.50;99.90;;;;;;10081698;28;20025;-60
2022/11/22 16:11:43;;;;;;;1.92;1.40;;;9.40;99.90;;;;;;10064268;28;20029;-62
2022/11/22 16:16:34;;;;;;;4.05;1.02;;;9.50;99.90;;;;;;10067561;28;20448;-60
2022/11/22 16:21:31;;;;;;;4.03;0.82;;;9.60;99.90;;;;;;10065787;28;20061;-62
2022/11/22 16:26:30;;;;;;;2.45;0.90;;;9.60;99.90;;;;;;10067907;28;20542;-59
2022/11/22 16:31:30;;;;;;;2.17;0.73;;;9.60;99.90;;;;;;10081902;28;20117;-60
2022/11/22 16:36:23;;;;;;;8.23;0.93;;;9.60;99.90;;;;;;10071764;28;20032;-59
2022/11/22 16:41:25;;;;;;;1.30;0.85;;;9.60;99.90;;;;;;10098448;28;20025;-60
2022/11/22 16:46:16;;;;;;;5.38;0.98;;;9.60;99.90;;;;;;10080860;28;20104;-66
2022/11/22 16:51:13;;;;;;;4.30;1.20;;;9.50;99.90;;;;;;10083615;28;20044;-59
2022/11/22 16:56:05;;;;;;;3.70;1.05;;;9.50;99.90;;;;;;10080912;28;20088;-60
2022/11/22 17:00:56;;;;;;;4.20;1.80;;;9.30;99.90;;;;;;10079623;28;20037;-59
2022/11/22 17:05:47;;;;;;;3.05;0.90;;;9.30;99.90;;;;;;10082477;28;20037;-60
2022/11/22 17:10:41;;;;;;;5.05;1.45;;;9.30;99.90;;;;;;10102342;28;20079;-60
2022/11/22 17:15:32;;;;;;;3.38;1.63;;;9.30;99.90;;;;;;10073339;28;20017;-59
2022/11/22 17:20:23;;;;;;;2.47;1.10;;;9.30;99.90;;;;;;10087437;28;20078;-62
2022/11/22 17:25:14;;;;;;;3.17;1.17;;;9.40;99.90;;;;;;10087124;28;20053;-58
2022/11/22 17:30:06;;;;;;;3.80;0.95;;;9.40;99.90;;;;;;10086749;28;20445;-59
2022/11/22 17:34:56;;;;;;;4.40;1.38;;;9.40;99.90;;;;;;10083371;28;20028;-61
2022/11/22 17:39:50;;;;;;;2.75;1.00;;;9.40;99.90;;;;;;10085101;28;20040;-63
2022/11/22 17:44:41;;;;;;;6.07;1.38;;;9.40;99.90;;;;;;10101306;28;20045;-60
2022/11/22 17:49:31;;;;;;;7.15;1.63;;;9.40;99.90;;;;;;10091488;28;20087;-61
2022/11/22 17:54:22;;;;;;;2.22;1.02;;;9.30;99.90;;;;;;10093551;28;20041;-60
2022/11/22 17:59:12;;;;;;;3.47;1.25;;;9.40;99.90;;;;;;10097808;28;20021;-64
2022/11/22 18:04:03;;;;;;;5.13;1.60;;;9.40;99.90;;;;;;10097601;28;20044;-63
2022/11/22 18:08:54;;;;;;;3.75;1.20;;;9.40;99.90;;;;;;10100906;28;20024;-63
2022/11/22 18:13:45;;;;;;;2.63;1.25;;;9.40;99.90;;;;;;10089105;28;20132;-62
2022/11/22 18:18:36;;;;;;;5.03;1.45;;;9.30;99.90;;;;;;10094248;28;20021;-65
2022/11/22 18:23:31;;;;;;;2.50;1.45;;;9.30;99.90;;;;;;10094295;28;20044;-59
2022/11/22 18:28:22;;;;;;;2.38;1.27;;;9.40;99.90;;;;;;10099254;28;20091;-64
2022/11/22 18:33:13;;;;;;;7.70;1.73;;;9.40;99.90;;;;;;10094273;28;20029;-63
2022/11/22 18:38:04;;;;;;;2.67;1.23;;;9.40;99.90;;;;;;10091779;28;20124;-63
2022/11/22 18:42:56;;;;;;;4.60;1.30;;;9.40;99.90;;;;;;10093017;28;20566;-65
2022/11/22 18:47:46;;;;;;;2.90;1.38;;;9.40;99.90;;;;;;10089188;28;20499;-63
2022/11/22 18:52:37;;;;;;;3.45;1.40;;;9.30;99.90;;;;;;10087657;28;20033;-63
2022/11/22 18:57:28;;;;;;;3.97;1.30;;;9.20;99.90;;;;;;10087422;28;20502;-60
2022/11/22 19:02:24;;;;;;;2.55;1.52;;;9.10;99.90;;;;;;10091175;28;20168;-62
2022/11/22 19:07:15;;;;;;;2.50;1.48;;;9.00;99.90;;;;;;10096638;28;20116;-61
2022/11/22 19:12:05;;;;;;;5.65;1.75;;;9.10;99.90;;;;;;10086348;28;20371;-61
2022/11/22 19:16:56;;;;;;;3.20;1.85;;;9.10;99.90;;;;;;10086950;28;20020;-61
2022/11/22 19:21:47;;;;;;;4.30;1.50;;;9.00;99.90;;;;;;10094685;28;20095;-59
2022/11/22 19:26:37;;;;;;;4.55;1.95;;;9.00;99.90;;;;;;10093266;28;20502;-66
2022/11/22 19:31:30;;;;;;;2.88;1.05;;;8.90;99.90;;;;;;10065431;28;20072;-59
2022/11/22 19:36:22;;;;;;;4.15;1.40;;;8.90;99.90;;;;;;10083821;28;20048;-63
2022/11/22 19:41:15;;;;;;;6.30;1.63;;;8.80;99.90;;;;;;10085334;28;20545;-60
2022/11/22 19:46:06;;;;;;;5.25;1.40;;;8.80;99.90;;;;;;10097865;28;20040;-62
2022/11/22 19:50:58;;;;;;;3.17;1.30;;;8.70;99.90;;;;;;10084878;28;20013;-60
2022/11/22 19:55:49;;;;;;;1.90;1.05;;;8.70;99.90;;;;;;10091207;28;20953;-60
2022/11/22 20:00:40;;;;;;;4.30;1.38;;;8.60;99.90;;;;;;10088072;28;20020;-63
2022/11/22 20:05:31;;;;;;;2.10;1.33;;;8.60;99.90;;;;;;10067552;28;20052;-62
2022/11/22 20:10:22;;;;;;;5.80;1.08;;;8.60;99.90;;;;;;10085169;28;20025;-62
2022/11/22 20:15:13;;;;;;;6.00;1.48;;;8.70;99.90;;;;;;10085077;28;20450;-60
2022/11/22 20:20:04;;;;;;;4.70;2.08;;;8.70;99.90;;;;;;10092890;28;20398;-63
2022/11/22 20:24:55;;;;;;;3.20;1.27;;;8.70;99.90;;;;;;10095994;28;20090;-61
2022/11/22 20:29:46;;;;;;;2.97;1.38;;;8.70;99.90;;;;;;10085214;28;20013;-62
2022/11/22 20:34:36;;;;;;;4.43;1.77;;;8.70;99.90;;;;;;10090309;28;20116;-60
2022/11/22 20:39:28;;;;;;;2.00;1.10;;;8.70;99.90;;;;;;10094670;28;20111;-61
2022/11/22 20:44:18;;;;;;;1.40;1.00;;;8.70;99.90;;;;;;10095502;28;20418;-63
2022/11/22 20:49:09;;;;;;;3.90;1.13;;;8.60;99.90;;;;;;10091885;28;20028;-58
2022/11/22 20:54:00;;;;;;;3.38;1.13;;;8.60;99.90;;;;;;10111327;28;20347;-62
2022/11/22 20:58:51;;;;;;;3.72;1.77;;;8.60;99.90;;;;;;10100289;28;20095;-61
2022/11/22 21:03:42;;;;;;;3.80;1.20;;;8.60;99.90;;;;;;10093867;28;20131;-60
2022/11/22 21:08:33;;;;;;;4.20;1.20;;;8.50;99.90;;;;;;10088218;28;20032;-62
2022/11/22 21:13:26;;;;;;;2.75;1.20;;;8.50;99.90;;;;;;10100011;28;20048;-63
2022/11/22 21:18:18;;;;;;;2.28;0.90;;;8.40;99.90;;;;;;10101084;28;20044;-59
2022/11/22 21:23:08;;;;;;;2.53;1.75;;;8.40;99.90;;;;;;10091399;28;20067;-61
2022/11/22 21:27:59;;;;;;;1.40;1.02;;;8.40;99.90;;;;;;10089488;28;20040;-62
2022/11/22 21:32:50;;;;;;;1.98;0.95;;;8.40;99.90;;;;;;10090056;28;20029;-61
2022/11/22 21:37:40;;;;;;;2.33;1.13;;;8.30;99.90;;;;;;10100946;28;20444;-60
2022/11/22 21:42:31;;;;;;;2.78;1.05;;;8.30;99.90;;;;;;10101736;28;20036;-65
2022/11/22 21:47:22;;;;;;;3.83;1.15;;;8.20;99.90;;;;;;10090727;28;20024;-63
2022/11/22 21:52:13;;;;;;;2.63;1.23;;;8.30;99.90;;;;;;10096828;28;20024;-64
2022/11/22 21:57:04;;;;;;;2.17;1.13;;;8.40;99.90;;;;;;10089850;28;20041;-63
2022/11/22 22:01:55;;;;;;;2.75;0.85;;;8.40;99.90;;;;;;10091481;28;20055;-62
2022/11/22 22:06:46;;;;;;;3.25;1.10;;;8.40;99.90;;;;;;10085472;28;20034;-65
2022/11/22 22:11:36;;;;;;;2.88;0.80;;;8.50;99.90;;;;;;10102807;28;20141;-63
2022/11/22 22:16:27;;;;;;;6.63;1.27;;;8.50;99.90;;;;;;10099367;28;20076;-63
2022/11/22 22:21:19;;;;;;;1.92;0.98;;;8.40;99.90;;;;;;10095954;28;20057;-63
2022/11/22 22:26:12;;;;;;;4.10;1.33;;;8.40;99.90;;;;;;10096806;28;20081;-61
2022/11/22 22:31:15;;;;;;;1.88;1.02;;;8.50;99.90;;;;;;10095325;28;20089;-61
2022/11/22 22:36:08;;;;;;;2.75;0.77;;;8.50;99.90;;;;;;10093637;28;20040;-61
2022/11/22 22:41:03;;;;;;;3.72;1.30;;;8.60;99.90;;;;;;10087732;28;20031;-63
2022/11/22 22:45:53;;;;;;;6.00;1.20;;;8.60;99.90;;;;;;10095505;28;20036;-63
2022/11/22 22:50:44;;;;;;;1.58;1.05;;;8.60;99.90;;;;;;10092584;28;20432;-63
2022/11/22 22:55:35;;;;;;;3.63;1.02;;;8.60;99.90;;;;;;10098533;28;20099;-65
2022/11/22 23:00:29;;;;;;;1.63;0.82;;;8.60;99.90;;;;;;10090111;28;20238;-63
2022/11/22 23:05:20;;;;;;;3.03;1.08;;;8.60;99.90;;;;;;10081638;28;20048;-61
2022/11/22 23:10:11;;;;;;;2.72;1.10;;;8.60;99.90;;;;;;10089700;28;20114;-64
2022/11/22 23:15:02;;;;;;;3.30;1.45;;;8.60;99.90;;;;;;10081580;28;20065;-61
2022/11/22 23:19:53;;;;;;;5.00;1.38;;;8.60;99.90;;;;;;10095399;28;20517;-61
2022/11/22 23:24:44;;;;;;;2.83;1.10;;;8.70;99.90;;;;;;10089677;28;20379;-60
2022/11/22 23:29:35;;;;;;;3.10;1.98;;;8.60;99.90;;;;;;10082536;28;20017;-62
2022/11/22 23:34:25;;;;;;;3.40;1.50;;;8.60;99.90;;;;;;10087139;28;20386;-60
2022/11/22 23:39:17;;;;;;;3.38;1.58;;;8.60;99.90;;;;;;10088104;28;20511;-61
2022/11/22 23:44:07;;;;;;;3.83;1.45;;;8.60;99.90;;;;;;10089915;28;20450;-60
2022/11/22 23:48:59;;;;;;;2.50;1.08;;;8.60;99.90;;;;;;10087886;28;20025;-60
2022/11/22 23:54:02;;;;;;;5.38;1.63;;;8.50;99.90;;;;;;10083295;28;20063;-62
2022/11/22 23:58:53;;;;;;;2.47;1.38;;;8.50;99.90;;;;;;10080936;28;20032;-61
